sensor_id;sensor_type;location;lat;lon;timestamp;pressure;altitude;pressure_sealevel;temperature;humidity
74466;BME280;62916;50.044;15.938;2023-05-10T00:00:40;98941.58;;;20.80;42.84
74466;BME280;62916;50.044;15.938;2023-05-10T00:03:11;98942.73;;;20.79;42.97
74466;BME280;62916;50.044;15.938;2023-05-10T00:05:42;98939.95;;;20.78;42.89
74466;BME280;62916;50.044;15.938;2023-05-10T00:08:13;98935.08;;;20.77;42.87
74466;BME280;62916;50.044;15.938;2023-05-10T00:10:44;98931.99;;;20.75;42.90
74466;BME280;62916;50.044;15.938;2023-05-10T00:13:15;98929.22;;;20.75;42.96
74466;BME280;62916;50.044;15.938;2023-05-10T00:15:46;98925.20;;;20.74;42.87
74466;BME280;62916;50.044;15.938;2023-05-10T00:18:16;98921.45;;;20.73;42.89
74466;BME280;62916;50.044;15.938;2023-05-10T00:20:47;98920.34;;;20.72;42.87
74466;BME280;62916;50.044;15.938;2023-05-10T00:23:18;98922.77;;;20.72;42.92
74466;BME280;62916;50.044;15.938;2023-05-10T00:25:49;98921.89;;;20.71;43.04
74466;BME280;62916;50.044;15.938;2023-05-10T00:28:20;98919.44;;;20.70;42.95
74466;BME280;62916;50.044;15.938;2023-05-10T00:30:51;98916.81;;;20.69;43.03
74466;BME280;62916;50.044;15.938;2023-05-10T00:33:22;98918.95;;;20.69;42.98
74466;BME280;62916;50.044;15.938;2023-05-10T00:35:53;98916.25;;;20.69;43.02
74466;BME280;62916;50.044;15.938;2023-05-10T00:38:23;98910.41;;;20.68;43.02
74466;BME280;62916;50.044;15.938;2023-05-10T00:40:54;98913.87;;;20.70;43.09
74466;BME280;62916;50.044;15.938;2023-05-10T00:43:25;98911.80;;;20.69;43.03
74466;BME280;62916;50.044;15.938;2023-05-10T00:45:56;98909.45;;;20.69;43.04
74466;BME280;62916;50.044;15.938;2023-05-10T00:48:26;98905.89;;;20.67;43.06
74466;BME280;62916;50.044;15.938;2023-05-10T00:50:59;98905.20;;;20.67;43.20
74466;BME280;62916;50.044;15.938;2023-05-10T00:53:32;98904.38;;;20.67;43.20
74466;BME280;62916;50.044;15.938;2023-05-10T00:56:05;98899.36;;;20.67;43.35
74466;BME280;62916;50.044;15.938;2023-05-10T00:58:36;98896.08;;;20.67;43.12
74466;BME280;62916;50.044;15.938;2023-05-10T01:01:08;98894.88;;;20.67;43.29
74466;BME280;62916;50.044;15.938;2023-05-10T01:03:41;98894.38;;;20.67;43.36
74466;BME280;62916;50.044;15.938;2023-05-10T01:06:12;98893.30;;;20.68;43.33
74466;BME280;62916;50.044;15.938;2023-05-10T01:08:43;98893.33;;;20.67;43.34
74466;BME280;62916;50.044;15.938;2023-05-10T01:11:14;98896.11;;;20.68;43.38
74466;BME280;62916;50.044;15.938;2023-05-10T01:13:50;98892.27;;;20.66;43.33
74466;BME280;62916;50.044;15.938;2023-05-10T01:16:23;98885.75;;;20.66;43.30
74466;BME280;62916;50.044;15.938;2023-05-10T01:18:55;98882.59;;;20.66;43.38
74466;BME280;62916;50.044;15.938;2023-05-10T01:21:33;98880.30;;;20.64;43.40
74466;BME280;62916;50.044;15.938;2023-05-10T01:24:56;98881.77;;;20.66;43.26
74466;BME280;62916;50.044;15.938;2023-05-10T01:30:55;98881.50;;;20.65;43.43
74466;BME280;62916;50.044;15.938;2023-05-10T01:33:34;98873.35;;;20.65;43.37
74466;BME280;62916;50.044;15.938;2023-05-10T01:36:09;98873.01;;;20.62;43.40
74466;BME280;62916;50.044;15.938;2023-05-10T01:38:49;98873.08;;;20.64;43.61
74466;BME280;62916;50.044;15.938;2023-05-10T01:41:28;98871.02;;;20.63;43.44
74466;BME280;62916;50.044;15.938;2023-05-10T01:44:08;98870.42;;;20.62;43.60
74466;BME280;62916;50.044;15.938;2023-05-10T01:46:41;98870.92;;;20.63;43.61
74466;BME280;62916;50.044;15.938;2023-05-10T01:49:16;98872.21;;;20.63;43.63
74466;BME280;62916;50.044;15.938;2023-05-10T01:51:52;98873.20;;;20.63;43.81
74466;BME280;62916;50.044;15.938;2023-05-10T01:54:25;98868.52;;;20.64;43.81
74466;BME280;62916;50.044;15.938;2023-05-10T01:57:02;98867.72;;;20.64;43.97
74466;BME280;62916;50.044;15.938;2023-05-10T01:59:36;98865.65;;;20.64;43.88
74466;BME280;62916;50.044;15.938;2023-05-10T02:02:11;98866.15;;;20.64;43.95
74466;BME280;62916;50.044;15.938;2023-05-10T02:04:43;98864.70;;;20.64;43.95
74466;BME280;62916;50.044;15.938;2023-05-10T02:07:15;98863.20;;;20.64;43.92
74466;BME280;62916;50.044;15.938;2023-05-10T02:09:47;98859.77;;;20.65;43.88
74466;BME280;62916;50.044;15.938;2023-05-10T02:12:19;98857.67;;;20.65;44.00
74466;BME280;62916;50.044;15.938;2023-05-10T02:14:52;98857.49;;;20.67;44.23
74466;BME280;62916;50.044;15.938;2023-05-10T02:17:24;98857.69;;;20.67;44.17
74466;BME280;62916;50.044;15.938;2023-05-10T02:19:56;98857.78;;;20.68;44.23
74466;BME280;62916;50.044;15.938;2023-05-10T02:22:29;98861.34;;;20.68;44.13
74466;BME280;62916;50.044;15.938;2023-05-10T02:25:02;98859.55;;;20.67;44.07
74466;BME280;62916;50.044;15.938;2023-05-10T02:27:34;98859.74;;;20.66;44.26
74466;BME280;62916;50.044;15.938;2023-05-10T02:30:09;98858.52;;;20.68;44.12
74466;BME280;62916;50.044;15.938;2023-05-10T02:32:41;98855.20;;;20.67;44.23
74466;BME280;62916;50.044;15.938;2023-05-10T02:35:13;98852.48;;;20.68;44.22
74466;BME280;62916;50.044;15.938;2023-05-10T02:37:46;98850.96;;;20.68;44.29
74466;BME280;62916;50.044;15.938;2023-05-10T02:40:18;98845.92;;;20.67;44.48
74466;BME280;62916;50.044;15.938;2023-05-10T02:42:52;98848.54;;;20.68;44.38
74466;BME280;62916;50.044;15.938;2023-05-10T02:45:29;98847.34;;;20.68;44.41
74466;BME280;62916;50.044;15.938;2023-05-10T02:48:00;98844.75;;;20.68;44.35
74466;BME280;62916;50.044;15.938;2023-05-10T02:50:33;98842.64;;;20.67;44.50
74466;BME280;62916;50.044;15.938;2023-05-10T02:53:10;98847.14;;;20.67;44.61
74466;BME280;62916;50.044;15.938;2023-05-10T02:55:43;98851.15;;;20.67;44.61
74466;BME280;62916;50.044;15.938;2023-05-10T02:58:16;98847.71;;;20.67;44.51
74466;BME280;62916;50.044;15.938;2023-05-10T03:00:48;98844.81;;;20.66;44.71
74466;BME280;62916;50.044;15.938;2023-05-10T03:03:19;98845.68;;;20.67;44.71
74466;BME280;62916;50.044;15.938;2023-05-10T03:05:50;98845.17;;;20.67;44.92
74466;BME280;62916;50.044;15.938;2023-05-10T03:08:23;98848.07;;;20.68;44.92
74466;BME280;62916;50.044;15.938;2023-05-10T03:11:07;98847.18;;;20.68;44.76
74466;BME280;62916;50.044;15.938;2023-05-10T03:13:47;98847.47;;;20.68;44.75
74466;BME280;62916;50.044;15.938;2023-05-10T03:16:25;98849.16;;;20.68;44.61
74466;BME280;62916;50.044;15.938;2023-05-10T03:19:05;98849.06;;;20.67;44.71
74466;BME280;62916;50.044;15.938;2023-05-10T03:21:39;98849.66;;;20.68;44.89
74466;BME280;62916;50.044;15.938;2023-05-10T03:24:13;98849.94;;;20.68;44.87
74466;BME280;62916;50.044;15.938;2023-05-10T03:26:45;98852.27;;;20.70;44.92
74466;BME280;62916;50.044;15.938;2023-05-10T03:29:17;98854.35;;;20.70;44.95
74466;BME280;62916;50.044;15.938;2023-05-10T03:31:47;98852.92;;;20.70;45.01
74466;BME280;62916;50.044;15.938;2023-05-10T03:34:24;98851.73;;;20.70;44.93
74466;BME280;62916;50.044;15.938;2023-05-10T03:36:56;98856.68;;;20.71;45.09
74466;BME280;62916;50.044;15.938;2023-05-10T03:39:26;98854.19;;;20.71;45.08
74466;BME280;62916;50.044;15.938;2023-05-10T03:41:57;98857.62;;;20.72;44.94
74466;BME280;62916;50.044;15.938;2023-05-10T03:44:28;98860.73;;;20.72;44.99
74466;BME280;62916;50.044;15.938;2023-05-10T03:46:58;98861.09;;;20.73;45.01
74466;BME280;62916;50.044;15.938;2023-05-10T03:49:29;98862.55;;;20.73;45.26
74466;BME280;62916;50.044;15.938;2023-05-10T03:52:01;98861.52;;;20.73;45.32
74466;BME280;62916;50.044;15.938;2023-05-10T03:54:31;98860.11;;;20.73;45.29
74466;BME280;62916;50.044;15.938;2023-05-10T03:57:02;98861.08;;;20.73;45.35
74466;BME280;62916;50.044;15.938;2023-05-10T03:59:33;98863.16;;;20.73;45.15
74466;BME280;62916;50.044;15.938;2023-05-10T04:02:04;98857.73;;;20.71;44.58
74466;BME280;62916;50.044;15.938;2023-05-10T04:04:35;98862.88;;;20.71;43.99
74466;BME280;62916;50.044;15.938;2023-05-10T04:07:06;98863.73;;;20.67;43.37
74466;BME280;62916;50.044;15.938;2023-05-10T04:09:37;98861.47;;;20.62;42.87
74466;BME280;62916;50.044;15.938;2023-05-10T04:12:08;98857.75;;;20.55;42.83
74466;BME280;62916;50.044;15.938;2023-05-10T04:14:39;98867.48;;;20.56;42.53
74466;BME280;62916;50.044;15.938;2023-05-10T04:17:10;98862.93;;;20.54;42.56
74466;BME280;62916;50.044;15.938;2023-05-10T04:19:41;98863.73;;;20.52;42.26
74466;BME280;62916;50.044;15.938;2023-05-10T04:22:12;98865.15;;;20.52;42.33
74466;BME280;62916;50.044;15.938;2023-05-10T04:24:43;98866.80;;;20.53;42.23
74466;BME280;62916;50.044;15.938;2023-05-10T04:27:13;98861.61;;;20.53;42.34
74466;BME280;62916;50.044;15.938;2023-05-10T04:29:44;98861.61;;;20.53;42.45
74466;BME280;62916;50.044;15.938;2023-05-10T04:32:15;98857.36;;;20.52;42.32
74466;BME280;62916;50.044;15.938;2023-05-10T04:34:46;98859.64;;;20.51;42.30
74466;BME280;62916;50.044;15.938;2023-05-10T04:37:17;98857.24;;;20.50;42.39
74466;BME280;62916;50.044;15.938;2023-05-10T04:39:48;98858.23;;;20.49;42.24
74466;BME280;62916;50.044;15.938;2023-05-10T04:42:19;98854.08;;;20.48;42.17
74466;BME280;62916;50.044;15.938;2023-05-10T04:44:50;98856.11;;;20.46;42.12
74466;BME280;62916;50.044;15.938;2023-05-10T04:47:21;98852.36;;;20.44;42.14
74466;BME280;62916;50.044;15.938;2023-05-10T04:49:52;98852.20;;;20.44;41.99
74466;BME280;62916;50.044;15.938;2023-05-10T04:52:23;98852.45;;;20.43;42.02
74466;BME280;62916;50.044;15.938;2023-05-10T04:54:54;98852.05;;;20.41;41.95
74466;BME280;62916;50.044;15.938;2023-05-10T04:57:25;98849.42;;;20.40;41.90
74466;BME280;62916;50.044;15.938;2023-05-10T04:59:55;98847.66;;;20.39;41.80
74466;BME280;62916;50.044;15.938;2023-05-10T05:02:26;98850.38;;;20.38;41.83
74466;BME280;62916;50.044;15.938;2023-05-10T05:04:58;98845.06;;;20.37;41.83
74466;BME280;62916;50.044;15.938;2023-05-10T05:07:29;98852.41;;;20.36;41.81
74466;BME280;62916;50.044;15.938;2023-05-10T05:10:00;98848.73;;;20.35;41.76
74466;BME280;62916;50.044;15.938;2023-05-10T05:12:31;98853.55;;;20.33;41.66
74466;BME280;62916;50.044;15.938;2023-05-10T05:15:02;98848.67;;;20.32;41.49
74466;BME280;62916;50.044;15.938;2023-05-10T05:17:34;98851.16;;;20.32;41.62
74466;BME280;62916;50.044;15.938;2023-05-10T05:20:07;98846.68;;;20.31;41.52
74466;BME280;62916;50.044;15.938;2023-05-10T05:22:38;98848.36;;;20.29;41.37
74466;BME280;62916;50.044;15.938;2023-05-10T05:25:10;98847.02;;;20.28;41.33
74466;BME280;62916;50.044;15.938;2023-05-10T05:27:41;98845.03;;;20.27;41.30
74466;BME280;62916;50.044;15.938;2023-05-10T05:30:13;98853.11;;;20.26;41.44
74466;BME280;62916;50.044;15.938;2023-05-10T05:32:44;98850.03;;;20.26;41.38
74466;BME280;62916;50.044;15.938;2023-05-10T05:35:16;98849.14;;;20.26;41.43
74466;BME280;62916;50.044;15.938;2023-05-10T05:37:47;98849.80;;;20.24;41.23
74466;BME280;62916;50.044;15.938;2023-05-10T05:40:18;98848.11;;;20.26;41.32
74466;BME280;62916;50.044;15.938;2023-05-10T05:42:49;98847.55;;;20.26;41.17
74466;BME280;62916;50.044;15.938;2023-05-10T05:45:20;98846.61;;;20.25;41.21
74466;BME280;62916;50.044;15.938;2023-05-10T05:47:51;98847.88;;;20.25;41.25
74466;BME280;62916;50.044;15.938;2023-05-10T05:50:22;98841.66;;;20.24;41.06
74466;BME280;62916;50.044;15.938;2023-05-10T05:52:53;98844.11;;;20.23;41.22
74466;BME280;62916;50.044;15.938;2023-05-10T05:55:24;98841.54;;;20.20;41.11
74466;BME280;62916;50.044;15.938;2023-05-10T05:57:56;98843.70;;;20.23;40.98
74466;BME280;62916;50.044;15.938;2023-05-10T06:00:27;98844.56;;;20.22;40.83
74466;BME280;62916;50.044;15.938;2023-05-10T06:02:58;98841.34;;;20.20;40.95
74466;BME280;62916;50.044;15.938;2023-05-10T06:05:29;98846.23;;;20.20;40.99
74466;BME280;62916;50.044;15.938;2023-05-10T06:08:02;98843.95;;;20.20;40.87
74466;BME280;62916;50.044;15.938;2023-05-10T06:10:32;98841.75;;;20.18;40.83
74466;BME280;62916;50.044;15.938;2023-05-10T06:13:03;98846.58;;;20.18;40.92
74466;BME280;62916;50.044;15.938;2023-05-10T06:15:34;98844.23;;;20.18;40.85
74466;BME280;62916;50.044;15.938;2023-05-10T06:18:05;98840.05;;;20.16;40.84
74466;BME280;62916;50.044;15.938;2023-05-10T06:20:36;98838.39;;;20.13;40.91
74466;BME280;62916;50.044;15.938;2023-05-10T06:23:07;98841.94;;;20.13;40.95
74466;BME280;62916;50.044;15.938;2023-05-10T06:25:38;98848.16;;;20.14;40.88
74466;BME280;62916;50.044;15.938;2023-05-10T06:28:09;98843.80;;;20.13;40.81
74466;BME280;62916;50.044;15.938;2023-05-10T06:30:40;98843.46;;;20.13;41.02
74466;BME280;62916;50.044;15.938;2023-05-10T06:33:11;98846.09;;;20.14;40.93
74466;BME280;62916;50.044;15.938;2023-05-10T06:35:41;98841.05;;;20.13;41.01
74466;BME280;62916;50.044;15.938;2023-05-10T06:38:12;98836.38;;;20.13;40.88
74466;BME280;62916;50.044;15.938;2023-05-10T06:40:44;98834.35;;;20.11;41.08
74466;BME280;62916;50.044;15.938;2023-05-10T06:43:15;98834.27;;;20.11;41.20
74466;BME280;62916;50.044;15.938;2023-05-10T06:45:45;98833.30;;;20.10;41.27
74466;BME280;62916;50.044;15.938;2023-05-10T06:48:16;98828.59;;;20.12;41.35
74466;BME280;62916;50.044;15.938;2023-05-10T06:50:47;98832.66;;;20.11;41.32
74466;BME280;62916;50.044;15.938;2023-05-10T06:53:18;98833.81;;;20.12;41.21
74466;BME280;62916;50.044;15.938;2023-05-10T06:55:50;98836.23;;;20.12;41.20
74466;BME280;62916;50.044;15.938;2023-05-10T06:58:21;98836.30;;;20.12;41.14
74466;BME280;62916;50.044;15.938;2023-05-10T07:00:52;98837.47;;;20.12;41.36
74466;BME280;62916;50.044;15.938;2023-05-10T07:03:23;98833.10;;;20.13;41.21
74466;BME280;62916;50.044;15.938;2023-05-10T07:05:54;98833.07;;;20.13;41.30
74466;BME280;62916;50.044;15.938;2023-05-10T07:08:32;98831.45;;;20.14;41.29
74466;BME280;62916;50.044;15.938;2023-05-10T07:11:05;98832.56;;;20.14;41.30
74466;BME280;62916;50.044;15.938;2023-05-10T07:13:37;98827.77;;;20.13;41.33
74466;BME280;62916;50.044;15.938;2023-05-10T07:16:11;98829.69;;;20.13;41.27
74466;BME280;62916;50.044;15.938;2023-05-10T07:18:42;98820.40;;;20.12;41.37
74466;BME280;62916;50.044;15.938;2023-05-10T07:21:12;98823.39;;;20.12;41.35
74466;BME280;62916;50.044;15.938;2023-05-10T07:23:43;98826.70;;;20.13;41.43
74466;BME280;62916;50.044;15.938;2023-05-10T07:26:14;98817.13;;;20.13;41.31
74466;BME280;62916;50.044;15.938;2023-05-10T07:28:45;98815.51;;;20.12;41.33
74466;BME280;62916;50.044;15.938;2023-05-10T07:31:16;98818.88;;;20.12;41.50
74466;BME280;62916;50.044;15.938;2023-05-10T07:33:47;98823.33;;;20.13;41.34
74466;BME280;62916;50.044;15.938;2023-05-10T07:36:18;98825.73;;;20.13;41.47
74466;BME280;62916;50.044;15.938;2023-05-10T07:38:49;98826.30;;;20.13;41.39
74466;BME280;62916;50.044;15.938;2023-05-10T07:41:20;98833.29;;;20.12;41.35
74466;BME280;62916;50.044;15.938;2023-05-10T07:43:51;98824.22;;;20.13;41.26
74466;BME280;62916;50.044;15.938;2023-05-10T07:46:22;98822.54;;;20.15;41.31
74466;BME280;62916;50.044;15.938;2023-05-10T07:48:55;98828.59;;;20.15;41.12
74466;BME280;62916;50.044;15.938;2023-05-10T07:51:26;98821.02;;;20.15;41.31
74466;BME280;62916;50.044;15.938;2023-05-10T07:53:57;98835.91;;;20.15;41.12
74466;BME280;62916;50.044;15.938;2023-05-10T07:56:29;98832.77;;;20.15;41.08
74466;BME280;62916;50.044;15.938;2023-05-10T07:59:01;98832.39;;;20.16;40.88
74466;BME280;62916;50.044;15.938;2023-05-10T08:01:33;98839.59;;;20.16;40.94
74466;BME280;62916;50.044;15.938;2023-05-10T08:04:04;98829.45;;;20.16;40.79
74466;BME280;62916;50.044;15.938;2023-05-10T08:06:35;98827.76;;;20.16;40.70
74466;BME280;62916;50.044;15.938;2023-05-10T08:09:06;98827.27;;;20.16;40.70
74466;BME280;62916;50.044;15.938;2023-05-10T08:11:37;98824.69;;;20.16;40.49
74466;BME280;62916;50.044;15.938;2023-05-10T08:14:08;98833.10;;;20.15;40.53
74466;BME280;62916;50.044;15.938;2023-05-10T08:16:39;98828.95;;;20.14;40.53
74466;BME280;62916;50.044;15.938;2023-05-10T08:19:09;98826.98;;;20.15;40.46
74466;BME280;62916;50.044;15.938;2023-05-10T08:21:40;98835.67;;;20.14;40.52
74466;BME280;62916;50.044;15.938;2023-05-10T08:24:12;98837.47;;;20.14;40.45
74466;BME280;62916;50.044;15.938;2023-05-10T08:26:42;98844.30;;;20.14;40.52
74466;BME280;62916;50.044;15.938;2023-05-10T08:29:13;98842.38;;;20.14;40.39
74466;BME280;62916;50.044;15.938;2023-05-10T08:31:44;98842.55;;;20.14;40.34
74466;BME280;62916;50.044;15.938;2023-05-10T08:34:15;98833.33;;;20.13;40.40
74466;BME280;62916;50.044;15.938;2023-05-10T08:36:46;98832.01;;;20.14;40.44
74466;BME280;62916;50.044;15.938;2023-05-10T08:39:17;98833.07;;;20.14;40.43
74466;BME280;62916;50.044;15.938;2023-05-10T08:42:03;98836.43;;;20.14;40.42
74466;BME280;62916;50.044;15.938;2023-05-10T08:44:35;98839.77;;;20.15;40.44
74466;BME280;62916;50.044;15.938;2023-05-10T08:47:07;98839.46;;;20.15;40.29
74466;BME280;62916;50.044;15.938;2023-05-10T08:49:40;98837.09;;;20.17;40.45
74466;BME280;62916;50.044;15.938;2023-05-10T08:52:12;98835.48;;;20.18;40.40
74466;BME280;62916;50.044;15.938;2023-05-10T08:54:44;98833.66;;;20.18;40.41
74466;BME280;62916;50.044;15.938;2023-05-10T08:57:14;98841.79;;;20.18;40.21
74466;BME280;62916;50.044;15.938;2023-05-10T08:59:45;98834.80;;;20.18;40.37
74466;BME280;62916;50.044;15.938;2023-05-10T09:02:17;98839.04;;;20.18;40.35
74466;BME280;62916;50.044;15.938;2023-05-10T09:04:48;98837.23;;;20.16;40.45
74466;BME280;62916;50.044;15.938;2023-05-10T09:07:20;98844.40;;;20.17;40.41
74466;BME280;62916;50.044;15.938;2023-05-10T09:09:51;98843.08;;;20.18;40.26
74466;BME280;62916;50.044;15.938;2023-05-10T09:12:22;98837.45;;;20.18;40.32
74466;BME280;62916;50.044;15.938;2023-05-10T09:14:53;98833.99;;;20.17;40.49
74466;BME280;62916;50.044;15.938;2023-05-10T09:17:25;98847.39;;;20.19;40.42
74466;BME280;62916;50.044;15.938;2023-05-10T09:20:00;98847.43;;;20.20;40.41
74466;BME280;62916;50.044;15.938;2023-05-10T09:22:31;98842.75;;;20.20;40.36
74466;BME280;62916;50.044;15.938;2023-05-10T09:25:11;98844.89;;;20.20;40.30
74466;BME280;62916;50.044;15.938;2023-05-10T09:27:46;98849.98;;;20.20;40.34
74466;BME280;62916;50.044;15.938;2023-05-10T09:30:25;98844.08;;;20.19;40.37
74466;BME280;62916;50.044;15.938;2023-05-10T09:32:57;98851.30;;;20.19;40.27
74466;BME280;62916;50.044;15.938;2023-05-10T09:35:31;98843.67;;;20.19;40.31
74466;BME280;62916;50.044;15.938;2023-05-10T09:38:04;98847.91;;;20.19;40.44
74466;BME280;62916;50.044;15.938;2023-05-10T09:40:35;98855.11;;;20.19;40.44
74466;BME280;62916;50.044;15.938;2023-05-10T09:43:07;98850.84;;;20.21;40.51
74466;BME280;62916;50.044;15.938;2023-05-10T09:45:42;98850.38;;;20.21;40.36
74466;BME280;62916;50.044;15.938;2023-05-10T09:48:13;98846.84;;;20.21;40.46
74466;BME280;62916;50.044;15.938;2023-05-10T09:50:44;98852.53;;;20.21;40.44
74466;BME280;62916;50.044;15.938;2023-05-10T09:53:16;98849.28;;;20.20;40.51
74466;BME280;62916;50.044;15.938;2023-05-10T09:55:48;98845.38;;;20.19;40.60
74466;BME280;62916;50.044;15.938;2023-05-10T09:58:20;98848.15;;;20.18;40.61
74466;BME280;62916;50.044;15.938;2023-05-10T10:00:50;98848.38;;;20.18;40.74
74466;BME280;62916;50.044;15.938;2023-05-10T10:03:23;98846.05;;;20.18;40.57
74466;BME280;62916;50.044;15.938;2023-05-10T10:05:53;98848.98;;;20.19;40.79
74466;BME280;62916;50.044;15.938;2023-05-10T10:08:25;98852.60;;;20.20;40.72
74466;BME280;62916;50.044;15.938;2023-05-10T10:10:56;98848.92;;;20.21;40.79
74466;BME280;62916;50.044;15.938;2023-05-10T10:13:27;98845.91;;;20.22;40.85
74466;BME280;62916;50.044;15.938;2023-05-10T10:15:59;98846.63;;;20.24;40.75
74466;BME280;62916;50.044;15.938;2023-05-10T10:18:31;98852.16;;;20.25;40.99
74466;BME280;62916;50.044;15.938;2023-05-10T10:21:04;98845.92;;;20.26;40.70
74466;BME280;62916;50.044;15.938;2023-05-10T10:23:35;98843.73;;;20.25;40.89
74466;BME280;62916;50.044;15.938;2023-05-10T10:26:07;98850.23;;;20.25;40.84
74466;BME280;62916;50.044;15.938;2023-05-10T10:28:44;98842.04;;;20.25;40.74
74466;BME280;62916;50.044;15.938;2023-05-10T10:31:25;98839.77;;;20.25;40.82
74466;BME280;62916;50.044;15.938;2023-05-10T10:34:03;98841.69;;;20.25;40.78
74466;BME280;62916;50.044;15.938;2023-05-10T10:36:42;98843.34;;;20.24;40.81
74466;BME280;62916;50.044;15.938;2023-05-10T10:39:15;98844.64;;;20.24;40.97
74466;BME280;62916;50.044;15.938;2023-05-10T10:41:52;98840.72;;;20.23;40.87
74466;BME280;62916;50.044;15.938;2023-05-10T10:44:34;98846.41;;;20.23;40.93
74466;BME280;62916;50.044;15.938;2023-05-10T10:47:22;98845.75;;;20.22;41.11
74466;BME280;62916;50.044;15.938;2023-05-10T10:50:07;98841.58;;;20.22;41.19
74466;BME280;62916;50.044;15.938;2023-05-10T10:52:39;98836.00;;;20.20;41.27
74466;BME280;62916;50.044;15.938;2023-05-10T10:55:12;98839.17;;;20.21;41.13
74466;BME280;62916;50.044;15.938;2023-05-10T10:57:48;98847.11;;;20.22;41.18
74466;BME280;62916;50.044;15.938;2023-05-10T11:00:29;98843.10;;;20.22;41.27
74466;BME280;62916;50.044;15.938;2023-05-10T11:03:03;98838.04;;;20.22;41.19
74466;BME280;62916;50.044;15.938;2023-05-10T11:05:39;98834.50;;;20.24;41.18
74466;BME280;62916;50.044;15.938;2023-05-10T11:08:18;98832.14;;;20.25;41.10
74466;BME280;62916;50.044;15.938;2023-05-10T11:11:02;98838.60;;;20.26;41.14
74466;BME280;62916;50.044;15.938;2023-05-10T11:13:36;98837.64;;;20.26;41.12
74466;BME280;62916;50.044;15.938;2023-05-10T11:16:19;98829.20;;;20.26;41.20
74466;BME280;62916;50.044;15.938;2023-05-10T11:18:59;98826.81;;;20.26;41.23
74466;BME280;62916;50.044;15.938;2023-05-10T11:21:33;98824.80;;;20.28;41.26
74466;BME280;62916;50.044;15.938;2023-05-10T11:24:14;98824.70;;;20.29;41.18
74466;BME280;62916;50.044;15.938;2023-05-10T11:26:45;98828.24;;;20.30;41.28
74466;BME280;62916;50.044;15.938;2023-05-10T11:29:17;98833.15;;;20.29;41.11
74466;BME280;62916;50.044;15.938;2023-05-10T11:31:49;98828.05;;;20.30;41.17
74466;BME280;62916;50.044;15.938;2023-05-10T11:34:27;98832.65;;;20.29;41.12
74466;BME280;62916;50.044;15.938;2023-05-10T11:36:59;98832.11;;;20.28;41.08
74466;BME280;62916;50.044;15.938;2023-05-10T11:39:31;98827.17;;;20.27;41.23
74466;BME280;62916;50.044;15.938;2023-05-10T11:42:02;98830.06;;;20.27;41.07
74466;BME280;62916;50.044;15.938;2023-05-10T11:44:33;98835.78;;;20.27;41.10
74466;BME280;62916;50.044;15.938;2023-05-10T11:47:05;98823.33;;;20.28;41.15
74466;BME280;62916;50.044;15.938;2023-05-10T11:49:36;98828.56;;;20.28;41.08
74466;BME280;62916;50.044;15.938;2023-05-10T11:52:08;98825.38;;;20.27;41.11
74466;BME280;62916;50.044;15.938;2023-05-10T11:54:46;98825.88;;;20.26;41.22
74466;BME280;62916;50.044;15.938;2023-05-10T11:57:25;98825.65;;;20.24;41.27
74466;BME280;62916;50.044;15.938;2023-05-10T11:59:57;98823.13;;;20.24;41.41
74466;BME280;62916;50.044;15.938;2023-05-10T12:02:30;98827.64;;;20.25;41.40
74466;BME280;62916;50.044;15.938;2023-05-10T12:05:01;98828.38;;;20.25;41.51
74466;BME280;62916;50.044;15.938;2023-05-10T12:07:34;98836.84;;;20.26;41.41
74466;BME280;62916;50.044;15.938;2023-05-10T12:10:07;98835.52;;;20.27;41.41
74466;BME280;62916;50.044;15.938;2023-05-10T12:12:42;98829.25;;;20.27;41.28
74466;BME280;62916;50.044;15.938;2023-05-10T12:15:16;98829.05;;;20.26;41.34
74466;BME280;62916;50.044;15.938;2023-05-10T12:17:48;98837.00;;;20.26;41.27
74466;BME280;62916;50.044;15.938;2023-05-10T12:20:23;98837.23;;;20.26;41.60
74466;BME280;62916;50.044;15.938;2023-05-10T12:22:55;98837.34;;;20.26;41.38
74466;BME280;62916;50.044;15.938;2023-05-10T12:25:32;98840.45;;;20.28;41.64
74466;BME280;62916;50.044;15.938;2023-05-10T12:28:07;98838.65;;;20.30;41.34
74466;BME280;62916;50.044;15.938;2023-05-10T12:30:54;98851.81;;;20.31;41.36
74466;BME280;62916;50.044;15.938;2023-05-10T12:33:25;98838.56;;;20.31;41.23
74466;BME280;62916;50.044;15.938;2023-05-10T12:35:58;98839.23;;;20.32;41.17
74466;BME280;62916;50.044;15.938;2023-05-10T12:38:31;98839.26;;;20.31;41.15
74466;BME280;62916;50.044;15.938;2023-05-10T12:41:04;98837.48;;;20.29;41.28
74466;BME280;62916;50.044;15.938;2023-05-10T12:43:36;98840.33;;;20.28;41.39
74466;BME280;62916;50.044;15.938;2023-05-10T12:46:09;98840.99;;;20.29;41.25
74466;BME280;62916;50.044;15.938;2023-05-10T12:48:41;98847.95;;;20.29;41.32
74466;BME280;62916;50.044;15.938;2023-05-10T12:51:12;98839.86;;;20.31;41.36
74466;BME280;62916;50.044;15.938;2023-05-10T12:53:45;98838.10;;;20.32;41.41
74466;BME280;62916;50.044;15.938;2023-05-10T12:56:18;98840.16;;;20.32;41.28
74466;BME280;62916;50.044;15.938;2023-05-10T12:58:49;98838.38;;;20.32;41.27
74466;BME280;62916;50.044;15.938;2023-05-10T13:01:20;98836.80;;;20.32;41.37
74466;BME280;62916;50.044;15.938;2023-05-10T13:03:51;98840.31;;;20.31;41.34
74466;BME280;62916;50.044;15.938;2023-05-10T13:06:22;98840.11;;;20.30;41.45
74466;BME280;62916;50.044;15.938;2023-05-10T13:08:53;98839.91;;;20.29;41.57
74466;BME280;62916;50.044;15.938;2023-05-10T13:11:24;98839.24;;;20.29;41.26
74466;BME280;62916;50.044;15.938;2023-05-10T13:13:55;98834.57;;;20.29;41.36
74466;BME280;62916;50.044;15.938;2023-05-10T13:16:26;98838.11;;;20.29;41.46
74466;BME280;62916;50.044;15.938;2023-05-10T13:18:56;98843.81;;;20.29;41.49
74466;BME280;62916;50.044;15.938;2023-05-10T13:21:28;98846.27;;;20.30;41.40